Time,TemperatureF,DewpointF,PressureIn,WindDirection,WindDirectionDegrees,WindSpeedMPH,WindSpeedGustMPH,Humidity,HourlyPrecipIn,Conditions,Clouds,dailyrainin,SoftwareType,DateUTC
2013-01-24 00:00:00,46.0,41.2,29.65,SE,135,8.1,9.4,83,0.00,,SCT,0.00,VWS V14.01,2013-01-23 23:00:00,
2013-01-24 00:03:00,46.0,41.5,29.65,ESE,112,7.4,9.8,84,0.00,,OVC,0.00,VWS V14.01,2013-01-23 23:03:00,
2013-01-24 00:05:00,46.0,41.5,29.65,East,90,7.8,9.8,84,0.00,,SCT,0.00,VWS V14.01,2013-01-23 23:05:00,
2013-01-24 00:08:00,46.0,41.5,29.65,SE,135,6.0,8.7,84,0.00,,OVC,0.00,VWS V14.01,2013-01-23 23:08:00,
2013-01-24 00:10:00,46.0,41.5,29.65,SSE,158,5.8,8.7,84,0.00,,SCT,0.00,VWS V14.01,2013-01-23 23:10:00,
2013-01-24 00:13:00,46.0,41.8,29.62,SE,135,9.6,9.6,85,0.00,,OVC,0.00,VWS V14.01,2013-01-23 23:13:00,
2013-01-24 00:15:00,46.0,41.5,29.62,SSE,158,4.9,9.6,84,0.00,,SCT,0.00,VWS V14.01,2013-01-23 23:15:00,
2013-01-24 00:18:00,46.2,41.7,29.62,SE,135,9.0,9.0,84,0.00,,OVC,0.00,VWS V14.01,2013-01-23 23:18:00,
2013-01-24 00:20:00,46.2,41.7,29.62,SE,135,7.6,9.0,84,0.00,,SCT,0.00,VWS V14.01,2013-01-23 23:20:00,
2013-01-24 00:23:00,46.4,41.5,29.62,SW,225,5.8,10.1,83,0.00,,OVC,0.00,VWS V14.01,2013-01-23 23:23:00,
2013-01-24 00:25:00,46.4,41.8,29.62,ESE,112,6.5,10.1,84,0.00,,SCT,0.00,VWS V14.01,2013-01-23 23:25:00,
2013-01-24 00:28:00,46.4,41.5,29.62,SSE,158,8.1,8.1,83,0.00,,OVC,0.00,VWS V14.01,2013-01-23 23:28:00,
2013-01-24 00:30:00,46.4,41.5,29.62,SE,135,6.3,8.1,83,0.00,,SCT,0.00,VWS V14.01,2013-01-23 23:30:00,
2013-01-24 00:33:00,46.4,41.5,29.62,SSE,158,10.3,10.3,83,0.00,,OVC,0.00,VWS V14.01,2013-01-23 23:33:00,
2013-01-24 00:35:00,46.4,41.5,29.62,SE,135,8.7,10.3,83,0.00,,SCT,0.00,VWS V14.01,2013-01-23 23:35:00,
2013-01-24 00:38:00,46.4,41.5,29.62,SE,135,10.3,10.3,83,0.00,,OVC,0.00,VWS V14.01,2013-01-23 23:38:00,
2013-01-24 00:40:00,46.4,41.5,29.62,SE,135,10.3,10.3,83,0.00,,SCT,0.00,VWS V14.01,2013-01-23 23:40:00,
2013-01-24 00:43:00,46.4,41.5,29.62,SSE,158,6.0,10.3,83,0.00,,OVC,0.00,VWS V14.01,2013-01-23 23:43:00,
2013-01-24 00:45:00,46.4,41.5,29.62,SSE,158,7.8,10.3,83,0.00,,SCT,0.00,VWS V14.01,2013-01-23 23:45:00,
2013-01-24 00:48:00,46.4,41.5,29.62,East,90,4.9,7.8,83,0.00,,OVC,0.00,VWS V14.01,2013-01-23 23:48:00,
2013-01-24 00:50:00,46.4,41.5,29.62,West,270,7.6,7.8,83,0.00,,SCT,0.00,VWS V14.01,2013-01-23 23:50:00,
2013-01-24 00:53:00,46.4,41.5,29.62,South,180,4.7,7.6,83,0.00,,OVC,0.00,VWS V14.01,2013-01-23 23:53:00,
2013-01-24 00:55:00,46.4,41.5,29.62,SE,135,4.9,7.6,83,0.00,,SCT,0.00,VWS V14.01,2013-01-23 23:55:00,
2013-01-24 00:58:00,46.2,41.7,29.62,SE,135,3.6,7.8,84,0.00,,OVC,0.00,VWS V14.01,2013-01-23 23:58:00,
2013-01-24 01:00:00,46.2,41.7,29.62,SE,135,4.9,7.8,84,0.00,,SCT,0.00,VWS V14.01,2013-01-24 00:00:00,
2013-01-24 01:03:00,46.2,41.7,29.62,ESE,112,3.8,10.3,84,0.00,,OVC,0.00,VWS V14.01,2013-01-24 00:03:00,
2013-01-24 01:05:00,46.2,41.7,29.62,SE,135,6.3,10.3,84,0.00,,SCT,0.00,VWS V14.01,2013-01-24 00:05:00,
2013-01-24 01:08:00,46.2,41.7,29.62,ESE,112,4.3,7.8,84,0.00,,OVC,0.00,VWS V14.01,2013-01-24 00:08:00,
2013-01-24 01:10:00,46.2,41.7,29.62,SSE,158,5.4,7.8,84,0.00,,SCT,0.00,VWS V14.01,2013-01-24 00:10:00,
2013-01-24 01:13:00,46.2,41.7,29.59,SSE,158,5.6,7.8,84,0.00,,OVC,0.00,VWS V14.01,2013-01-24 00:13:00,
2013-01-24 01:15:00,46.2,41.7,29.59,SSE,158,5.6,7.8,84,0.00,,SCT,0.00,VWS V14.01,2013-01-24 00:15:00,
2013-01-24 01:18:00,46.0,41.5,29.59,East,90,5.8,5.8,84,0.00,,OVC,0.00,VWS V14.01,2013-01-24 00:18:00,
2013-01-24 01:20:00,46.0,41.5,29.59,SE,135,7.6,7.6,84,0.00,,SCT,0.00,VWS V14.01,2013-01-24 00:20:00,
2013-01-24 01:23:00,46.0,41.5,29.59,South,180,7.8,10.1,84,0.00,,OVC,0.00,VWS V14.01,2013-01-24 00:23:00,
2013-01-24 01:25:00,46.0,41.5,29.59,South,180,10.7,10.7,84,0.00,,SCT,0.00,VWS V14.01,2013-01-24 00:25:00,
2013-01-24 01:28:00,46.0,41.8,29.59,ESE,112,6.3,10.7,85,0.00,,OVC,0.00,VWS V14.01,2013-01-24 00:28:00,
2013-01-24 01:30:00,46.0,41.8,29.59,SSE,158,8.5,10.7,85,0.00,,SCT,0.00,VWS V14.01,2013-01-24 00:30:00,
2013-01-24 01:33:00,45.9,41.6,29.59,SSE,158,9.2,9.2,85,0.00,,-RA,0.00,VWS V14.01,2013-01-24 00:33:00,
2013-01-24 01:35:00,45.9,41.6,29.59,ESE,112,7.6,9.2,85,0.00,,SCT,0.00,VWS V14.01,2013-01-24 00:35:00,
2013-01-24 01:38:00,45.9,41.9,29.59,ESE,112,8.7,8.7,86,0.01,,-RA,0.01,VWS V14.01,2013-01-24 00:38:00,
2013-01-24 01:40:00,45.9,41.9,29.59,SSE,158,10.1,10.1,86,0.01,,SCT,0.01,VWS V14.01,2013-01-24 00:40:00,
2013-01-24 01:43:00,45.9,41.9,29.59,SSW,202,5.4,10.1,86,0.01,,-RA,0.01,VWS V14.01,2013-01-24 00:43:00,
2013-01-24 01:45:00,45.9,41.9,29.59,South,180,3.4,10.1,86,0.01,,SCT,0.01,VWS V14.01,2013-01-24 00:45:00,
2013-01-24 01:48:00,45.7,41.7,29.59,SE,135,2.9,3.4,86,0.03,,-RA,0.03,VWS V14.01,2013-01-24 00:48:00,
2013-01-24 01:50:00,45.7,41.7,29.59,SSW,202,4.0,4.0,86,0.03,,SCT,0.03,VWS V14.01,2013-01-24 00:50:00,
2013-01-24 01:53:00,45.7,41.7,29.59,SW,225,3.4,5.8,86,0.03,,-RA,0.03,VWS V14.01,2013-01-24 00:53:00,
2013-01-24 01:55:00,45.7,41.7,29.59,SW,225,2.7,5.8,86,0.03,,SCT,0.03,VWS V14.01,2013-01-24 00:55:00,
2013-01-24 01:58:00,45.7,41.7,29.59,SSE,158,6.3,6.3,86,0.06,,-RA,0.06,VWS V14.01,2013-01-24 00:58:00,
2013-01-24 02:00:00,45.5,41.6,29.59,East,90,1.3,6.3,86,0.07,,SCT,0.07,VWS V14.01,2013-01-24 01:00:00,
2013-01-24 02:03:00,45.7,41.7,29.59,SSE,158,3.1,3.1,86,0.11,,-RA,0.11,VWS V14.01,2013-01-24 01:03:00,
2013-01-24 02:05:00,45.7,41.7,29.59,SE,135,5.6,5.6,86,0.11,,SCT,0.11,VWS V14.01,2013-01-24 01:05:00,
2013-01-24 02:08:00,45.7,42.0,29.59,SSE,158,4.7,5.6,87,0.12,,-RA,0.12,VWS V14.01,2013-01-24 01:08:00,
2013-01-24 02:10:00,45.7,42.0,29.59,ESE,112,5.4,5.6,87,0.12,,SCT,0.12,VWS V14.01,2013-01-24 01:10:00,
2013-01-24 02:13:00,45.9,42.2,29.59,ESE,112,5.6,6.5,87,0.13,,-RA,0.13,VWS V14.01,2013-01-24 01:13:00,
2013-01-24 02:15:00,46.0,42.4,29.59,SE,135,3.8,6.5,87,0.13,,SCT,0.13,VWS V14.01,2013-01-24 01:15:00,
2013-01-24 02:18:00,46.0,42.4,29.59,ENE,68,3.8,5.4,87,0.14,,-RA,0.14,VWS V14.01,2013-01-24 01:18:00,
2013-01-24 02:20:00,46.2,42.6,29.59,ESE,112,5.8,5.8,87,0.15,,SCT,0.15,VWS V14.01,2013-01-24 01:20:00,
2013-01-24 02:23:00,46.2,42.6,29.59,ESE,112,8.5,9.8,87,0.16,,-RA,0.16,VWS V14.01,2013-01-24 01:23:00,
2013-01-24 02:25:00,46.2,42.6,29.59,SE,135,6.3,9.8,87,0.16,,SCT,0.16,VWS V14.01,2013-01-24 01:25:00,
2013-01-24 02:28:00,46.0,42.4,29.59,South,180,8.5,8.5,87,0.17,,-RA,0.17,VWS V14.01,2013-01-24 01:28:00,
2013-01-24 02:30:00,46.0,42.4,29.59,SSE,158,6.5,8.5,87,0.17,,SCT,0.17,VWS V14.01,2013-01-24 01:30:00,
2013-01-24 02:33:00,46.0,42.4,29.59,SSW,202,5.4,7.8,87,0.18,, +RA,0.18,VWS V14.01,2013-01-24 01:33:00,
2013-01-24 02:35:00,46.0,42.4,29.59,SSE,158,3.8,7.8,87,0.18,,SCT,0.18,VWS V14.01,2013-01-24 01:35:00,
2013-01-24 02:38:00,46.0,42.1,29.59,SW,225,1.6,5.8,86,0.18,, +RA,0.18,VWS V14.01,2013-01-24 01:38:00,
2013-01-24 02:40:00,46.0,42.1,29.59,SSW,202,2.5,5.8,86,0.18,,SCT,0.18,VWS V14.01,2013-01-24 01:40:00,
2013-01-24 02:43:00,45.9,41.9,29.59,SW,225,2.0,3.1,86,0.17,, +RA,0.18,VWS V14.01,2013-01-24 01:43:00,
2013-01-24 02:45:00,45.9,42.2,29.59,SW,225,1.6,3.1,87,0.18,,SCT,0.19,VWS V14.01,2013-01-24 01:45:00,
2013-01-24 02:48:00,45.9,42.2,29.59,SE,135,0.0,2.9,87,0.18,, +RA,0.19,VWS V14.01,2013-01-24 01:48:00,
2013-01-24 02:50:00,45.9,42.2,29.59,SE,135,0.0,2.9,87,0.18,,SCT,0.19,VWS V14.01,2013-01-24 01:50:00,
2013-01-24 02:53:00,45.9,42.2,29.59,SSE,158,0.9,3.1,87,0.18,, +RA,0.21,VWS V14.01,2013-01-24 01:53:00,
2013-01-24 02:55:00,45.9,42.2,29.59,ESE,112,0.9,3.1,87,0.18,,SCT,0.21,VWS V14.01,2013-01-24 01:55:00,
2013-01-24 02:58:00,45.9,42.2,29.59,SW,225,0.0,2.2,87,0.19,, +RA,0.22,VWS V14.01,2013-01-24 01:58:00,
2013-01-24 03:00:00,45.7,42.0,29.59,South,180,4.0,4.0,87,0.19,,SCT,0.22,VWS V14.01,2013-01-24 02:00:00,
2013-01-24 03:03:00,45.7,42.0,29.59,SSW,202,4.0,4.0,87,0.16,, +RA,0.23,VWS V14.01,2013-01-24 02:03:00,
2013-01-24 03:05:00,45.7,42.0,29.59,SSE,158,1.6,4.0,87,0.17,,SCT,0.24,VWS V14.01,2013-01-24 02:05:00,
2013-01-24 03:08:00,45.7,42.0,29.59,East,90,2.2,2.2,87,0.14,, +RA,0.25,VWS V14.01,2013-01-24 02:08:00,
2013-01-24 03:10:00,45.5,41.9,29.59,SSE,158,2.2,2.2,87,0.14,,SCT,0.25,VWS V14.01,2013-01-24 02:10:00,
2013-01-24 03:13:00,45.5,41.9,29.56,SE,135,0.0,2.7,87,0.13,, +RA,0.25,VWS V14.01,2013-01-24 02:13:00,
2013-01-24 03:15:00,45.5,41.9,29.56,SE,135,0.0,2.7,87,0.15,,SCT,0.27,VWS V14.01,2013-01-24 02:15:00,
2013-01-24 03:18:00,45.5,41.9,29.56,ESE,112,2.9,2.9,87,0.13,, +RA,0.27,VWS V14.01,2013-01-24 02:18:00,
2013-01-24 03:20:00,45.5,41.9,29.56,NE,45,3.1,3.1,87,0.13,,SCT,0.27,VWS V14.01,2013-01-24 02:20:00,
2013-01-24 03:23:00,45.7,42.0,29.56,ENE,68,3.4,3.8,87,0.13,, +RA,0.28,VWS V14.01,2013-01-24 02:23:00,
2013-01-24 03:25:00,45.7,42.0,29.56,ENE,68,4.9,4.9,87,0.13,,SCT,0.28,VWS V14.01,2013-01-24 02:25:00,
2013-01-24 03:28:00,45.7,42.3,29.56,ENE,68,4.9,4.9,88,0.12,, +RA,0.28,VWS V14.01,2013-01-24 02:28:00,
2013-01-24 03:30:00,45.7,42.3,29.56,ENE,68,2.0,4.9,88,0.12,,SCT,0.28,VWS V14.01,2013-01-24 02:30:00,
2013-01-24 03:33:00,45.7,42.6,29.56,East,90,4.0,5.6,89,0.12,,RA,0.29,VWS V14.01,2013-01-24 02:33:00,
2013-01-24 03:35:00,45.7,42.6,29.56,ENE,68,4.0,6.0,89,0.12,,SCT,0.29,VWS V14.01,2013-01-24 02:35:00,
2013-01-24 03:38:00,45.7,42.6,29.56,East,90,3.8,4.0,89,0.11,,RA,0.29,VWS V14.01,2013-01-24 02:38:00,
2013-01-24 03:40:00,45.7,42.6,29.56,ESE,112,3.6,4.3,89,0.11,,SCT,0.29,VWS V14.01,2013-01-24 02:40:00,
2013-01-24 03:43:00,45.5,42.7,29.56,East,90,4.9,4.9,90,0.11,,RA,0.29,VWS V14.01,2013-01-24 02:43:00,
2013-01-24 03:45:00,45.5,42.7,29.56,NE,45,5.8,5.8,90,0.11,,SCT,0.29,VWS V14.01,2013-01-24 02:45:00,
2013-01-24 03:48:00,45.5,42.7,29.56,SE,135,2.5,5.8,90,0.10,,RA,0.29,VWS V14.01,2013-01-24 02:48:00,
2013-01-24 03:50:00,45.5,42.7,29.56,East,90,0.9,5.8,90,0.10,,SCT,0.29,VWS V14.01,2013-01-24 02:50:00,
2013-01-24 03:53:00,45.5,42.7,29.56,ENE,68,4.3,5.4,90,0.10,,RA,0.29,VWS V14.01,2013-01-24 02:53:00,
2013-01-24 03:55:00,45.5,42.7,29.56,East,90,4.9,6.9,90,0.10,,SCT,0.29,VWS V14.01,2013-01-24 02:55:00,
2013-01-24 03:58:00,45.5,43.0,29.56,East,90,3.1,6.7,91,0.08,,RA,0.29,VWS V14.01,2013-01-24 02:58:00,
2013-01-24 04:00:00,45.5,43.0,29.56,East,90,5.8,6.7,91,0.08,,SCT,0.29,VWS V14.01,2013-01-24 03:00:00,
2013-01-24 04:03:00,45.5,43.0,29.56,East,90,2.5,6.0,91,0.07,,RA,0.29,VWS V14.01,2013-01-24 03:03:00,
2013-01-24 04:05:00,45.5,43.0,29.56,ESE,112,3.6,6.0,91,0.07,,SCT,0.29,VWS V14.01,2013-01-24 03:05:00,
2013-01-24 04:08:00,45.5,43.0,29.56,ENE,68,4.3,6.0,91,0.05,,RA,0.29,VWS V14.01,2013-01-24 03:08:00,
2013-01-24 04:10:00,45.5,43.0,29.56,ENE,68,4.3,6.0,91,0.05,,SCT,0.29,VWS V14.01,2013-01-24 03:10:00,
2013-01-24 04:13:00,45.5,43.0,29.53,East,90,4.9,4.9,91,0.04,,RA,0.29,VWS V14.01,2013-01-24 03:13:00,
2013-01-24 04:15:00,45.5,43.0,29.53,ENE,68,4.9,4.9,91,0.04,,SCT,0.29,VWS V14.01,2013-01-24 03:15:00,
2013-01-24 04:18:00,45.5,43.0,29.53,ENE,68,4.9,4.9,91,0.02,,-RA,0.29,VWS V14.01,2013-01-24 03:18:00,
2013-01-24 04:20:00,45.5,43.0,29.53,East,90,4.0,4.9,91,0.02,,SCT,0.29,VWS V14.01,2013-01-24 03:20:00,
2013-01-24 04:23:00,45.5,43.0,29.53,East,90,2.9,4.9,91,0.02,,-RA,0.29,VWS V14.01,2013-01-24 03:23:00,
2013-01-24 04:25:00,45.5,43.0,29.53,East,90,5.6,5.6,91,0.02,,SCT,0.29,VWS V14.01,2013-01-24 03:25:00,
2013-01-24 04:28:00,45.3,42.8,29.53,ENE,68,4.0,5.6,91,0.01,,-RA,0.29,VWS V14.01,2013-01-24 03:28:00,
2013-01-24 04:30:00,45.3,42.8,29.53,ENE,68,2.7,5.6,91,0.01,,SCT,0.29,VWS V14.01,2013-01-24 03:30:00,
2013-01-24 04:33:00,45.3,42.8,29.53,NE,45,4.0,4.0,91,0.01,,-RA,0.29,VWS V14.01,2013-01-24 03:33:00,
2013-01-24 04:35:00,45.3,42.8,29.53,NNE,22,2.9,4.0,91,0.01,,SCT,0.29,VWS V14.01,2013-01-24 03:35:00,
2013-01-24 04:38:00,45.1,42.7,29.53,NNE,22,2.0,3.8,91,0.00,,-RA,0.29,VWS V14.01,2013-01-24 03:38:00,
2013-01-24 04:40:00,45.1,42.7,29.53,NE,45,2.7,3.8,91,0.00,,SCT,0.29,VWS V14.01,2013-01-24 03:40:00,
2013-01-24 04:43:00,45.1,42.7,29.53,NE,45,3.1,5.4,91,0.00,,-RA,0.29,VWS V14.01,2013-01-24 03:43:00,
2013-01-24 04:45:00,45.0,42.5,29.53,NNE,22,2.9,5.4,91,0.00,,SCT,0.29,VWS V14.01,2013-01-24 03:45:00,
2013-01-24 04:48:00,45.0,42.5,29.53,NE,45,3.4,3.4,91,0.00,,-RA,0.29,VWS V14.01,2013-01-24 03:48:00,
2013-01-24 04:50:00,44.8,42.3,29.53,NNE,22,2.7,3.4,91,0.00,,SCT,0.29,VWS V14.01,2013-01-24 03:50:00,
2013-01-24 04:53:00,44.8,42.3,29.53,NE,45,3.1,3.4,91,0.00,,-RA,0.29,VWS V14.01,2013-01-24 03:53:00,
2013-01-24 04:55:00,44.8,42.3,29.53,NNE,22,3.4,3.4,91,0.00,,SCT,0.29,VWS V14.01,2013-01-24 03:55:00,
2013-01-24 04:58:00,44.6,42.1,29.53,NE,45,2.5,3.4,91,0.00,,-RA,0.29,VWS V14.01,2013-01-24 03:58:00,
2013-01-24 05:00:00,44.6,42.1,29.53,North,0,2.7,3.8,91,0.00,,SCT,0.29,VWS V14.01,2013-01-24 04:00:00,
2013-01-24 05:03:00,44.6,42.1,29.53,NE,45,2.9,3.1,91,0.00,,-RA,0.29,VWS V14.01,2013-01-24 04:03:00,
2013-01-24 05:05:00,44.6,42.1,29.53,NNE,22,2.9,3.1,91,0.00,,SCT,0.29,VWS V14.01,2013-01-24 04:05:00,
2013-01-24 05:08:00,44.6,42.1,29.53,NNE,22,2.5,3.4,91,0.00,,-RA,0.29,VWS V14.01,2013-01-24 04:08:00,
2013-01-24 05:10:00,44.6,42.1,29.53,NNE,22,1.6,3.4,91,0.00,,SCT,0.29,VWS V14.01,2013-01-24 04:10:00,
2013-01-24 05:13:00,44.8,42.3,29.53,NNE,22,2.7,3.6,91,0.00,,-RA,0.29,VWS V14.01,2013-01-24 04:13:00,
2013-01-24 05:15:00,44.8,42.3,29.53,North,0,2.0,3.6,91,0.00,,SCT,0.29,VWS V14.01,2013-01-24 04:15:00,
2013-01-24 05:18:00,44.8,42.3,29.53,West,270,0.0,2.5,91,0.00,,-RA,0.29,VWS V14.01,2013-01-24 04:18:00,
2013-01-24 05:20:00,44.6,42.1,29.53,WNW,292,1.6,2.5,91,0.00,,SCT,0.29,VWS V14.01,2013-01-24 04:20:00,
2013-01-24 05:23:00,44.4,42.0,29.53,NW,315,0.0,2.5,91,0.00,,-RA,0.29,VWS V14.01,2013-01-24 04:23:00,
2013-01-24 05:25:00,44.2,41.8,29.53,WNW,292,1.3,2.5,91,0.00,,SCT,0.29,VWS V14.01,2013-01-24 04:25:00,
2013-01-24 05:28:00,44.4,42.0,29.53,NW,315,0.0,2.2,91,0.00,,-RA,0.29,VWS V14.01,2013-01-24 04:28:00,
2013-01-24 05:30:00,44.4,42.0,29.53,WSW,248,0.0,2.2,91,0.00,,SCT,0.29,VWS V14.01,2013-01-24 04:30:00,
2013-01-24 05:33:00,44.2,41.8,29.53,SW,225,0.0,0.0,91,0.00,,-RA,0.29,VWS V14.01,2013-01-24 04:33:00,
2013-01-24 05:35:00,44.1,41.6,29.53,WNW,292,0.0,0.0,91,0.00,,SCT,0.29,VWS V14.01,2013-01-24 04:35:00,
2013-01-24 05:38:00,44.2,41.8,29.53,North,0,0.0,0.0,91,0.00,,-RA,0.29,VWS V14.01,2013-01-24 04:38:00,
2013-01-24 05:40:00,44.2,41.8,29.53,NNW,338,0.0,0.0,91,0.00,,SCT,0.29,VWS V14.01,2013-01-24 04:40:00,
2013-01-24 05:43:00,44.2,41.8,29.53,NNW,338,0.0,0.0,91,0.00,,-RA,0.29,VWS V14.01,2013-01-24 04:43:00,
2013-01-24 05:45:00,44.1,41.3,29.53,NNW,338,0.0,0.0,90,0.00,,SCT,0.29,VWS V14.01,2013-01-24 04:45:00,
2013-01-24 05:48:00,43.9,41.1,29.53,NW,315,2.2,2.2,90,0.00,,-RA,0.29,VWS V14.01,2013-01-24 04:48:00,
2013-01-24 05:50:00,43.9,41.1,29.53,NW,315,0.9,2.2,90,0.00,,SCT,0.29,VWS V14.01,2013-01-24 04:50:00,
2013-01-24 05:53:00,43.9,41.1,29.53,NNW,338,0.0,1.1,90,0.00,,-RA,0.29,VWS V14.01,2013-01-24 04:53:00,
2013-01-24 05:55:00,43.9,41.1,29.53,NNW,338,0.0,1.1,90,0.00,,SCT,0.29,VWS V14.01,2013-01-24 04:55:00,
2013-01-24 05:58:00,43.9,41.1,29.53,NNE,22,0.0,0.0,90,0.00,,-RA,0.29,VWS V14.01,2013-01-24 04:58:00,
2013-01-24 06:00:00,43.9,41.1,29.53,North,0,2.0,2.0,90,0.00,,-RA,0.29,VWS V14.01,2013-01-24 05:00:00,
2013-01-24 06:01:00,43.9,41.1,29.53,North,0,2.0,2.0,90,0.00,,-RA,0.29,VWS V14.01,2013-01-24 05:01:00,
2013-01-24 06:05:00,44.1,41.3,29.53,NNE,22,2.0,2.5,90,0.00,,SCT,0.29,VWS V14.01,2013-01-24 05:05:00,
2013-01-24 06:06:00,44.2,41.5,29.53,NE,45,2.7,2.7,90,0.00,,-RA,0.29,VWS V14.01,2013-01-24 05:06:00,
2013-01-24 06:10:00,44.4,41.7,29.53,NNE,22,2.0,3.1,90,0.00,,SCT,0.29,VWS V14.01,2013-01-24 05:10:00,
2013-01-24 06:11:00,44.4,41.7,29.53,North,0,2.5,2.5,90,0.00,,-RA,0.29,VWS V14.01,2013-01-24 05:11:00,
2013-01-24 06:15:00,44.4,41.7,29.53,North,0,0.0,2.5,90,0.00,,SCT,0.29,VWS V14.01,2013-01-24 05:15:00,
2013-01-24 06:16:00,44.4,41.7,29.53,North,0,0.0,0.0,90,0.00,,-RA,0.29,VWS V14.01,2013-01-24 05:16:00,
2013-01-24 06:20:00,44.2,41.5,29.53,NW,315,2.0,2.0,90,0.00,,SCT,0.29,VWS V14.01,2013-01-24 05:20:00,
2013-01-24 06:21:00,44.2,41.5,29.53,NNW,338,2.5,2.5,90,0.00,,-RA,0.29,VWS V14.01,2013-01-24 05:21:00,
2013-01-24 06:25:00,44.2,41.5,29.53,NW,315,3.1,3.1,90,0.00,,SCT,0.29,VWS V14.01,2013-01-24 05:25:00,
2013-01-24 06:26:00,44.2,41.5,29.53,NNW,338,2.9,3.1,90,0.00,,-RA,0.29,VWS V14.01,2013-01-24 05:26:00,
2013-01-24 06:30:00,44.1,41.3,29.53,NNW,338,2.5,3.4,90,0.00,,SCT,0.29,VWS V14.01,2013-01-24 05:30:00,
2013-01-24 06:31:00,44.1,41.3,29.53,North,0,3.4,3.4,90,0.00,,-RA,0.29,VWS V14.01,2013-01-24 05:31:00,
2013-01-24 06:35:00,43.9,41.1,29.53,NW,315,3.8,3.8,90,0.00,,SCT,0.29,VWS V14.01,2013-01-24 05:35:00,
2013-01-24 06:36:00,43.7,40.7,29.53,NNW,338,5.4,5.4,89,0.00,,-RA,0.29,VWS V14.01,2013-01-24 05:36:00,
2013-01-24 06:40:00,43.5,40.8,29.53,North,0,4.9,5.6,90,0.00,,SCT,0.29,VWS V14.01,2013-01-24 05:40:00,
2013-01-24 06:41:00,43.5,40.8,29.53,NNW,338,4.9,4.9,90,0.00,,-RA,0.29,VWS V14.01,2013-01-24 05:41:00,
2013-01-24 06:45:00,43.3,40.6,29.53,NW,315,2.7,4.9,90,0.00,,SCT,0.29,VWS V14.01,2013-01-24 05:45:00,
2013-01-24 06:46:00,43.2,40.4,29.53,WSW,248,2.2,2.7,90,0.00,,-RA,0.29,VWS V14.01,2013-01-24 05:46:00,
2013-01-24 06:50:00,43.0,40.2,29.53,ENE,68,1.6,3.4,90,0.00,,SCT,0.29,VWS V14.01,2013-01-24 05:50:00,
2013-01-24 06:51:00,43.0,40.2,29.53,WNW,292,2.5,2.5,90,0.00,,-RA,0.29,VWS V14.01,2013-01-24 05:51:00,
2013-01-24 06:55:00,43.0,40.2,29.53,NW,315,5.6,5.6,90,0.00,,SCT,0.29,VWS V14.01,2013-01-24 05:55:00,
2013-01-24 06:56:00,43.0,40.2,29.53,NNW,338,3.1,5.6,90,0.00,,-RA,0.29,VWS V14.01,2013-01-24 05:56:00,
2013-01-24 07:00:00,42.8,40.4,29.53,NNW,338,3.4,5.6,91,0.00,,SCT,0.29,VWS V14.01,2013-01-24 06:00:00,
2013-01-24 07:01:00,42.8,40.4,29.53,North,0,3.6,3.6,91,0.00,,-RA,0.29,VWS V14.01,2013-01-24 06:01:00,
2013-01-24 07:05:00,42.8,40.4,29.53,NW,315,5.4,5.4,91,0.00,,SCT,0.29,VWS V14.01,2013-01-24 06:05:00,
2013-01-24 07:06:00,42.6,40.5,29.53,NNW,338,5.4,5.4,92,0.00,,-RA,0.29,VWS V14.01,2013-01-24 06:06:00,
2013-01-24 07:10:00,42.6,40.5,29.53,NNW,338,2.7,5.6,92,0.00,,SCT,0.29,VWS V14.01,2013-01-24 06:10:00,
2013-01-24 07:11:00,42.4,40.3,29.53,NNW,338,2.7,2.7,92,0.00,,-RA,0.29,VWS V14.01,2013-01-24 06:11:00,
2013-01-24 07:15:00,42.4,40.3,29.53,NW,315,2.7,4.9,92,0.00,,SCT,0.29,VWS V14.01,2013-01-24 06:15:00,
2013-01-24 07:16:00,42.4,40.6,29.53,North,0,4.9,4.9,93,0.00,,-RA,0.29,VWS V14.01,2013-01-24 06:16:00,
2013-01-24 07:20:00,42.4,40.6,29.53,NNW,338,3.6,4.9,93,0.00,,SCT,0.29,VWS V14.01,2013-01-24 06:20:00,
2013-01-24 07:21:00,42.4,40.6,29.53,NNW,338,3.8,3.8,93,0.00,,-RA,0.29,VWS V14.01,2013-01-24 06:21:00,
2013-01-24 07:25:00,42.4,40.6,29.53,NW,315,5.4,5.4,93,0.00,,SCT,0.29,VWS V14.01,2013-01-24 06:25:00,
2013-01-24 07:26:00,42.4,40.6,29.53,NNW,338,4.0,5.4,93,0.00,,-RA,0.29,VWS V14.01,2013-01-24 06:26:00,
2013-01-24 07:30:00,42.4,40.6,29.53,NW,315,2.5,5.4,93,0.00,,SCT,0.29,VWS V14.01,2013-01-24 06:30:00,
2013-01-24 07:31:00,42.4,40.6,29.53,WNW,292,2.7,2.7,93,0.00,,BKN,0.29,VWS V14.01,2013-01-24 06:31:00,
2013-01-24 07:35:00,42.4,40.6,29.53,NW,315,2.5,2.7,93,0.00,,SCT,0.29,VWS V14.01,2013-01-24 06:35:00,
2013-01-24 07:36:00,42.4,40.6,29.53,NW,315,3.8,3.8,93,0.00,,BKN,0.29,VWS V14.01,2013-01-24 06:36:00,
2013-01-24 07:40:00,42.6,40.7,29.53,NW,315,2.0,3.8,93,0.00,,SCT,0.29,VWS V14.01,2013-01-24 06:40:00,
2013-01-24 07:41:00,42.6,40.7,29.53,NNW,338,3.4,3.4,93,0.00,,BKN,0.29,VWS V14.01,2013-01-24 06:41:00,
2013-01-24 07:45:00,42.6,40.7,29.53,NNW,338,3.1,3.4,93,0.00,,SCT,0.29,VWS V14.01,2013-01-24 06:45:00,
2013-01-24 07:46:00,42.6,40.7,29.53,NW,315,3.1,3.1,93,0.00,,BKN,0.29,VWS V14.01,2013-01-24 06:46:00,
2013-01-24 07:50:00,42.8,40.9,29.53,NNW,338,4.9,4.9,93,0.00,,SCT,0.29,VWS V14.01,2013-01-24 06:50:00,
2013-01-24 07:51:00,42.8,40.9,29.53,NNW,338,2.9,4.9,93,0.00,,BKN,0.29,VWS V14.01,2013-01-24 06:51:00,
2013-01-24 07:55:00,42.8,40.9,29.53,WNW,292,4.3,4.9,93,0.00,,SCT,0.29,VWS V14.01,2013-01-24 06:55:00,
2013-01-24 07:56:00,42.8,40.9,29.53,NW,315,1.1,4.3,93,0.00,,BKN,0.29,VWS V14.01,2013-01-24 06:56:00,
2013-01-24 08:00:00,42.8,40.9,29.53,WNW,292,2.2,4.3,93,0.00,,SCT,0.29,VWS V14.01,2013-01-24 07:00:00,
2013-01-24 08:01:00,42.8,40.9,29.53,NW,315,3.6,3.6,93,0.00,,BKN,0.29,VWS V14.01,2013-01-24 07:01:00,
2013-01-24 08:05:00,42.6,41.0,29.53,NW,315,4.9,4.9,94,0.00,,SCT,0.29,VWS V14.01,2013-01-24 07:05:00,
2013-01-24 08:06:00,42.8,41.2,29.53,NW,315,3.8,4.9,94,0.00,,BKN,0.29,VWS V14.01,2013-01-24 07:06:00,
2013-01-24 08:10:00,42.6,41.0,29.53,North,0,7.8,7.8,94,0.00,,SCT,0.29,VWS V14.01,2013-01-24 07:10:00,
2013-01-24 08:11:00,42.6,41.0,29.53,NW,315,5.4,7.8,94,0.00,,BKN,0.29,VWS V14.01,2013-01-24 07:11:00,
2013-01-24 08:15:00,42.8,41.2,29.53,NNW,338,5.4,7.8,94,0.00,,SCT,0.29,VWS V14.01,2013-01-24 07:15:00,
2013-01-24 08:16:00,42.8,41.2,29.53,NNW,338,4.3,5.4,94,0.00,,BKN,0.29,VWS V14.01,2013-01-24 07:16:00,
2013-01-24 08:20:00,42.8,41.5,29.53,North,0,4.9,6.5,95,0.00,,SCT,0.29,VWS V14.01,2013-01-24 07:20:00,
2013-01-24 08:21:00,42.8,41.5,29.53,NW,315,4.3,4.9,95,0.00,,BKN,0.29,VWS V14.01,2013-01-24 07:21:00,
2013-01-24 08:25:00,42.8,41.5,29.53,WNW,292,5.6,6.3,95,0.00,,SCT,0.29,VWS V14.01,2013-01-24 07:25:00,
2013-01-24 08:26:00,42.8,41.5,29.53,NNW,338,6.3,6.3,95,0.00,,BKN,0.29,VWS V14.01,2013-01-24 07:26:00,
2013-01-24 08:30:00,42.8,41.5,29.53,NW,315,6.0,6.5,95,0.00,,SCT,0.29,VWS V14.01,2013-01-24 07:30:00,
2013-01-24 08:31:00,42.8,41.5,29.53,NNE,22,5.4,6.0,95,0.00,,BKN,0.29,VWS V14.01,2013-01-24 07:31:00,
2013-01-24 08:35:00,42.8,41.5,29.53,WNW,292,4.0,6.0,95,0.00,,SCT,0.29,VWS V14.01,2013-01-24 07:35:00,
2013-01-24 08:36:00,42.8,41.5,29.53,NW,315,5.6,5.6,95,0.00,,BKN,0.29,VWS V14.01,2013-01-24 07:36:00,
2013-01-24 08:40:00,42.8,41.5,29.53,NNW,338,8.7,8.7,95,0.00,,SCT,0.29,VWS V14.01,2013-01-24 07:40:00,
2013-01-24 08:41:00,42.8,41.5,29.53,NNW,338,5.4,8.7,95,0.00,,BKN,0.29,VWS V14.01,2013-01-24 07:41:00,
2013-01-24 08:45:00,42.8,41.5,29.53,WNW,292,3.8,8.7,95,0.00,,SCT,0.29,VWS V14.01,2013-01-24 07:45:00,
2013-01-24 08:46:00,42.8,41.7,29.53,NW,315,2.7,3.8,96,0.00,,BKN,0.29,VWS V14.01,2013-01-24 07:46:00,
2013-01-24 08:50:00,42.8,41.7,29.53,NNW,338,6.0,6.3,96,0.00,,SCT,0.29,VWS V14.01,2013-01-24 07:50:00,
2013-01-24 08:51:00,42.8,41.7,29.53,NNW,338,5.4,6.0,96,0.00,,BKN,0.29,VWS V14.01,2013-01-24 07:51:00,
2013-01-24 08:55:00,43.0,41.9,29.53,NE,45,5.6,6.0,96,0.00,,SCT,0.29,VWS V14.01,2013-01-24 07:55:00,
2013-01-24 08:56:00,43.0,41.9,29.53,North,0,5.6,5.6,96,0.00,,BKN,0.29,VWS V14.01,2013-01-24 07:56:00,
2013-01-24 09:00:00,43.0,41.9,29.53,NNE,22,5.4,7.4,96,0.00,,SCT,0.29,VWS V14.01,2013-01-24 08:00:00,
2013-01-24 09:01:00,43.0,41.9,29.53,NNW,338,4.3,5.4,96,0.00,,BKN,0.29,VWS V14.01,2013-01-24 08:01:00,
2013-01-24 09:05:00,43.0,41.9,29.53,WNW,292,4.0,6.3,96,0.00,,SCT,0.29,VWS V14.01,2013-01-24 08:05:00,
2013-01-24 09:06:00,43.0,41.9,29.53,North,0,5.6,5.6,96,0.00,,BKN,0.29,VWS V14.01,2013-01-24 08:06:00,
2013-01-24 09:10:00,43.0,41.9,29.53,NW,315,4.3,6.5,96,0.00,,SCT,0.29,VWS V14.01,2013-01-24 08:10:00,
2013-01-24 09:11:00,43.2,42.1,29.53,NW,315,3.6,5.6,96,0.00,,BKN,0.29,VWS V14.01,2013-01-24 08:11:00,
2013-01-24 09:15:00,43.3,42.3,29.53,North,0,5.8,5.8,96,0.00,,SCT,0.29,VWS V14.01,2013-01-24 08:15:00,
2013-01-24 09:16:00,43.3,42.3,29.53,West,270,2.2,5.8,96,0.00,,BKN,0.29,VWS V14.01,2013-01-24 08:16:00,
2013-01-24 09:20:00,43.5,42.5,29.53,NNW,338,1.1,6.3,96,0.00,,SCT,0.29,VWS V14.01,2013-01-24 08:20:00,
2013-01-24 09:21:00,43.5,42.5,29.53,NNE,22,1.1,1.1,96,0.00,,BKN,0.29,VWS V14.01,2013-01-24 08:21:00,
2013-01-24 09:25:00,43.5,42.5,29.53,NNW,338,5.4,8.1,96,0.00,,SCT,0.29,VWS V14.01,2013-01-24 08:25:00,
2013-01-24 09:26:00,43.7,42.6,29.53,NNW,338,7.6,7.6,96,0.00,,BKN,0.29,VWS V14.01,2013-01-24 08:26:00,
2013-01-24 09:30:00,43.9,42.8,29.53,NW,315,4.7,7.6,96,0.00,,SCT,0.29,VWS V14.01,2013-01-24 08:30:00,
2013-01-24 09:31:00,43.9,42.8,29.53,NW,315,6.3,6.3,96,0.00,,BKN,0.29,VWS V14.01,2013-01-24 08:31:00,
2013-01-24 09:35:00,44.1,43.0,29.53,WNW,292,7.8,7.8,96,0.00,,SCT,0.29,VWS V14.01,2013-01-24 08:35:00,
2013-01-24 09:36:00,44.1,43.0,29.53,ENE,68,5.8,7.8,96,0.00,,BKN,0.29,VWS V14.01,2013-01-24 08:36:00,
2013-01-24 09:40:00,44.4,43.3,29.53,NW,315,7.6,7.8,96,0.00,,SCT,0.29,VWS V14.01,2013-01-24 08:40:00,
2013-01-24 09:41:00,44.4,43.3,29.53,NNW,338,10.1,10.1,96,0.00,,BKN,0.29,VWS V14.01,2013-01-24 08:41:00,
2013-01-24 09:45:00,44.4,43.3,29.53,NNE,22,7.6,10.1,96,0.00,,SCT,0.29,VWS V14.01,2013-01-24 08:45:00,
2013-01-24 09:46:00,44.6,43.5,29.53,NW,315,7.4,7.6,96,0.00,,BKN,0.29,VWS V14.01,2013-01-24 08:46:00,
2013-01-24 09:50:00,44.8,43.7,29.53,North,0,10.3,10.3,96,0.00,,SCT,0.29,VWS V14.01,2013-01-24 08:50:00,
2013-01-24 09:51:00,44.8,43.7,29.53,NNW,338,6.9,10.3,96,0.00,,BKN,0.29,VWS V14.01,2013-01-24 08:51:00,
2013-01-24 09:55:00,45.0,43.6,29.53,North,0,7.2,10.3,95,0.00,,SCT,0.29,VWS V14.01,2013-01-24 08:55:00,
2013-01-24 09:56:00,45.0,43.6,29.53,NNW,338,9.6,9.6,95,0.00,,BKN,0.29,VWS V14.01,2013-01-24 08:56:00,
2013-01-24 10:00:00,45.0,43.6,29.53,North,0,5.8,9.6,95,0.00,,SCT,0.29,VWS V14.01,2013-01-24 09:00:00,
2013-01-24 10:01:00,45.3,43.7,29.53,NNW,338,5.6,5.8,94,0.00,,BKN,0.29,VWS V14.01,2013-01-24 09:01:00,
2013-01-24 10:05:00,45.5,43.9,29.53,WNW,292,3.6,5.8,94,0.00,,SCT,0.29,VWS V14.01,2013-01-24 09:05:00,
2013-01-24 10:06:00,45.5,43.9,29.53,NNW,338,6.0,6.0,94,0.00,,BKN,0.29,VWS V14.01,2013-01-24 09:06:00,
2013-01-24 10:10:00,45.5,43.6,29.53,North,0,6.3,7.6,93,0.00,,SCT,0.29,VWS V14.01,2013-01-24 09:10:00,
2013-01-24 10:11:00,45.5,43.6,29.53,NW,315,3.1,6.3,93,0.00,,BKN,0.29,VWS V14.01,2013-01-24 09:11:00,
2013-01-24 10:15:00,45.9,43.7,29.53,NNE,22,6.0,8.7,92,0.00,,SCT,0.29,VWS V14.01,2013-01-24 09:15:00,
2013-01-24 10:16:00,45.9,43.7,29.53,NNW,338,6.0,6.0,92,0.00,,SCT,0.29,VWS V14.01,2013-01-24 09:16:00,
2013-01-24 10:20:00,46.2,43.7,29.53,NNW,338,5.8,7.8,91,0.00,,SCT,0.29,VWS V14.01,2013-01-24 09:20:00,
2013-01-24 10:21:00,46.2,43.7,29.53,NW,315,5.8,5.8,91,0.00,,SCT,0.29,VWS V14.01,2013-01-24 09:21:00,
2013-01-24 10:25:00,46.4,43.6,29.53,NNW,338,9.6,9.6,90,0.00,,SCT,0.29,VWS V14.01,2013-01-24 09:25:00,
2013-01-24 10:26:00,46.4,43.3,29.53,NW,315,4.0,9.6,89,0.00,,SCT,0.29,VWS V14.01,2013-01-24 09:26:00,
2013-01-24 10:30:00,46.6,43.2,29.53,North,0,6.3,9.6,88,0.00,,SCT,0.29,VWS V14.01,2013-01-24 09:30:00,
2013-01-24 10:31:00,46.8,43.4,29.53,NW,315,4.9,6.3,88,0.00,,SCT,0.29,VWS V14.01,2013-01-24 09:31:00,
2013-01-24 10:35:00,46.9,43.3,29.53,NW,315,3.8,7.8,87,0.00,,SCT,0.29,VWS V14.01,2013-01-24 09:35:00,
2013-01-24 10:36:00,47.1,43.5,29.53,NNW,338,7.8,7.8,87,0.00,,SCT,0.29,VWS V14.01,2013-01-24 09:36:00,
2013-01-24 10:40:00,47.3,43.6,29.53,NE,45,4.0,7.8,87,0.00,,SCT,0.29,VWS V14.01,2013-01-24 09:40:00,
2013-01-24 10:41:00,47.3,43.3,29.53,WNW,292,4.0,4.0,86,0.00,,SCT,0.29,VWS V14.01,2013-01-24 09:41:00,
2013-01-24 10:45:00,47.3,43.3,29.53,NW,315,5.8,6.0,86,0.00,,SCT,0.29,VWS V14.01,2013-01-24 09:45:00,
2013-01-24 10:46:00,47.3,43.3,29.53,NW,315,6.0,6.0,86,0.00,,SCT,0.29,VWS V14.01,2013-01-24 09:46:00,
2013-01-24 10:50:00,47.5,43.2,29.53,NNW,338,4.7,6.0,85,0.00,,SCT,0.29,VWS V14.01,2013-01-24 09:50:00,
2013-01-24 10:51:00,47.5,43.2,29.53,NNW,338,5.8,5.8,85,0.00,,SCT,0.29,VWS V14.01,2013-01-24 09:51:00,
2013-01-24 10:55:00,47.5,43.2,29.53,NNW,338,5.4,6.3,85,0.00,,SCT,0.29,VWS V14.01,2013-01-24 09:55:00,
2013-01-24 10:56:00,47.5,42.9,29.53,NNE,22,4.3,5.4,84,0.00,,SCT,0.29,VWS V14.01,2013-01-24 09:56:00,
2013-01-24 11:00:00,47.7,43.1,29.53,WNW,292,7.6,7.8,84,0.00,,SCT,0.29,VWS V14.01,2013-01-24 10:00:00,
2013-01-24 11:01:00,47.7,43.1,29.53,NNE,22,8.5,8.5,84,0.00,,SCT,0.29,VWS V14.01,2013-01-24 10:01:00,
2013-01-24 11:05:00,47.8,42.9,29.53,WNW,292,6.0,8.5,83,0.00,,SCT,0.29,VWS V14.01,2013-01-24 10:05:00,
2013-01-24 11:06:00,47.8,42.9,29.53,NNW,338,3.8,6.0,83,0.00,,SCT,0.29,VWS V14.01,2013-01-24 10:06:00,
2013-01-24 11:10:00,47.8,42.9,29.53,NNW,338,6.5,6.5,83,0.00,,SCT,0.29,VWS V14.01,2013-01-24 10:10:00,
2013-01-24 11:11:00,47.8,42.6,29.53,NE,45,2.9,6.5,82,0.00,,SCT,0.29,VWS V14.01,2013-01-24 10:11:00,
2013-01-24 11:15:00,48.0,42.8,29.53,North,0,3.8,6.5,82,0.00,,SCT,0.29,VWS V14.01,2013-01-24 10:15:00,
2013-01-24 11:16:00,48.0,42.8,29.53,North,0,6.7,6.7,82,0.00,,SCT,0.29,VWS V14.01,2013-01-24 10:16:00,
2013-01-24 11:20:00,48.0,42.5,29.53,NNW,338,6.5,8.5,81,0.00,,SCT,0.29,VWS V14.01,2013-01-24 10:20:00,
2013-01-24 11:21:00,48.0,42.2,29.53,NNW,338,4.3,6.5,80,0.00,,SCT,0.29,VWS V14.01,2013-01-24 10:21:00,
2013-01-24 11:25:00,48.2,42.3,29.53,WNW,292,6.5,6.5,80,0.00,,SCT,0.29,VWS V14.01,2013-01-24 10:25:00,
2013-01-24 11:26:00,48.2,42.3,29.53,NW,315,6.7,6.7,80,0.00,,SCT,0.29,VWS V14.01,2013-01-24 10:26:00,
2013-01-24 11:30:00,48.2,42.3,29.53,NW,315,5.4,6.7,80,0.00,,SCT,0.29,VWS V14.01,2013-01-24 10:30:00,
2013-01-24 11:31:00,48.2,42.3,29.53,North,0,2.5,5.6,80,0.00,,BKN,0.29,VWS V14.01,2013-01-24 10:31:00,
2013-01-24 11:35:00,48.4,42.5,29.53,NNW,338,2.0,5.6,80,0.00,,SCT,0.29,VWS V14.01,2013-01-24 10:35:00,
2013-01-24 11:36:00,48.4,42.5,29.53,NNW,338,4.3,4.3,80,0.00,,BKN,0.29,VWS V14.01,2013-01-24 10:36:00,
2013-01-24 11:40:00,48.4,42.5,29.53,NW,315,5.4,5.4,80,0.00,,SCT,0.29,VWS V14.01,2013-01-24 10:40:00,
2013-01-24 11:41:00,48.4,42.5,29.53,WNW,292,6.5,6.5,80,0.00,,BKN,0.29,VWS V14.01,2013-01-24 10:41:00,
2013-01-24 11:45:00,48.4,42.2,29.53,NNE,22,3.6,7.4,79,0.00,,SCT,0.29,VWS V14.01,2013-01-24 10:45:00,
2013-01-24 11:46:00,48.4,42.2,29.53,NW,315,4.9,4.9,79,0.00,,BKN,0.29,VWS V14.01,2013-01-24 10:46:00,
2013-01-24 11:50:00,48.2,41.3,29.53,NNW,338,5.4,8.1,77,0.00,,SCT,0.29,VWS V14.01,2013-01-24 10:50:00,
2013-01-24 11:51:00,48.4,41.5,29.53,WNW,292,7.8,7.8,77,0.00,,BKN,0.29,VWS V14.01,2013-01-24 10:51:00,
2013-01-24 11:55:00,48.6,41.7,29.53,NNW,338,6.0,7.8,77,0.00,,SCT,0.29,VWS V14.01,2013-01-24 10:55:00,
2013-01-24 11:56:00,48.6,41.7,29.53,North,0,3.6,6.0,77,0.00,,BKN,0.29,VWS V14.01,2013-01-24 10:56:00,
2013-01-24 12:00:00,48.6,41.7,29.53,NW,315,6.3,7.6,77,0.00,,SCT,0.29,VWS V14.01,2013-01-24 11:00:00,
2013-01-24 12:01:00,48.6,41.3,29.53,NNW,338,2.5,6.3,76,0.00,,BKN,0.29,VWS V14.01,2013-01-24 11:01:00,
2013-01-24 12:05:00,48.7,41.9,29.53,West,270,4.9,6.3,77,0.00,,SCT,0.29,VWS V14.01,2013-01-24 11:05:00,
2013-01-24 12:06:00,48.7,41.9,29.53,North,0,3.6,4.9,77,0.00,,BKN,0.29,VWS V14.01,2013-01-24 11:06:00,
2013-01-24 12:10:00,48.7,41.9,29.53,NW,315,4.0,6.3,77,0.00,,SCT,0.29,VWS V14.01,2013-01-24 11:10:00,
2013-01-24 12:11:00,48.7,41.9,29.53,NNW,338,5.8,5.8,77,0.00,,BKN,0.29,VWS V14.01,2013-01-24 11:11:00,
2013-01-24 12:15:00,48.9,42.0,29.53,NNW,338,3.4,5.8,77,0.00,,SCT,0.29,VWS V14.01,2013-01-24 11:15:00,
2013-01-24 12:16:00,48.9,42.0,29.53,NW,315,6.3,6.3,77,0.00,,BKN,0.29,VWS V14.01,2013-01-24 11:16:00,
2013-01-24 12:20:00,48.9,41.4,29.53,NNW,338,8.5,8.5,75,0.00,,SCT,0.29,VWS V14.01,2013-01-24 11:20:00,
2013-01-24 12:21:00,48.9,41.7,29.53,NW,315,9.2,9.2,76,0.00,,BKN,0.29,VWS V14.01,2013-01-24 11:21:00,
2013-01-24 12:25:00,48.9,41.7,29.53,WNW,292,4.9,9.2,76,0.00,,SCT,0.29,VWS V14.01,2013-01-24 11:25:00,
2013-01-24 12:26:00,48.9,42.0,29.53,NW,315,3.8,4.9,77,0.00,,BKN,0.29,VWS V14.01,2013-01-24 11:26:00,
2013-01-24 12:30:00,48.9,42.0,29.53,NNW,338,1.6,8.5,77,0.00,,SCT,0.29,VWS V14.01,2013-01-24 11:30:00,
2013-01-24 12:31:00,48.9,41.7,29.53,NNW,338,1.6,1.6,76,0.00,,BKN,0.29,VWS V14.01,2013-01-24 11:31:00,
2013-01-24 12:35:00,49.1,41.9,29.53,NW,315,5.6,8.1,76,0.00,,SCT,0.29,VWS V14.01,2013-01-24 11:35:00,
2013-01-24 12:36:00,48.9,41.4,29.53,NNW,338,8.1,8.1,75,0.00,,BKN,0.29,VWS V14.01,2013-01-24 11:36:00,
2013-01-24 12:40:00,49.1,41.2,29.53,SW,225,2.9,8.1,74,0.00,,SCT,0.29,VWS V14.01,2013-01-24 11:40:00,
2013-01-24 12:41:00,49.1,41.2,29.53,WNW,292,2.9,2.9,74,0.00,,BKN,0.29,VWS V14.01,2013-01-24 11:41:00,
2013-01-24 12:45:00,49.3,41.7,29.53,NW,315,1.3,4.3,75,0.00,,SCT,0.29,VWS V14.01,2013-01-24 11:45:00,
2013-01-24 12:46:00,49.3,41.7,29.53,West,270,1.6,1.6,75,0.00,,BKN,0.29,VWS V14.01,2013-01-24 11:46:00,
2013-01-24 12:50:00,49.1,41.5,29.53,NNW,338,2.9,7.2,75,0.00,,SCT,0.29,VWS V14.01,2013-01-24 11:50:00,
2013-01-24 12:51:00,49.3,41.7,29.53,NNW,338,10.1,10.1,75,0.00,,BKN,0.29,VWS V14.01,2013-01-24 11:51:00,
2013-01-24 12:55:00,49.3,41.4,29.53,NNW,338,4.7,10.1,74,0.00,,SCT,0.29,VWS V14.01,2013-01-24 11:55:00,
2013-01-24 12:56:00,49.3,41.7,29.53,NNW,338,6.3,6.3,75,0.00,,BKN,0.29,VWS V14.01,2013-01-24 11:56:00,
2013-01-24 13:00:00,49.5,41.9,29.53,SSE,158,6.3,8.1,75,0.00,,SCT,0.29,VWS V14.01,2013-01-24 12:00:00,
2013-01-24 13:01:00,49.6,41.7,29.53,NNW,338,4.3,6.3,74,0.00,,BKN,0.29,VWS V14.01,2013-01-24 12:01:00,
2013-01-24 13:05:00,49.6,41.7,29.53,NW,315,2.5,6.3,74,0.00,,SCT,0.29,VWS V14.01,2013-01-24 12:05:00,
2013-01-24 13:06:00,49.8,41.9,29.53,NW,315,5.4,5.4,74,0.00,,BKN,0.29,VWS V14.01,2013-01-24 12:06:00,
2013-01-24 13:10:00,49.8,41.5,29.53,NW,315,4.9,6.5,73,0.00,,SCT,0.29,VWS V14.01,2013-01-24 12:10:00,
2013-01-24 13:11:00,50.0,41.0,29.53,NW,315,4.9,4.9,71,0.00,,BKN,0.29,VWS V14.01,2013-01-24 12:11:00,
2013-01-24 13:15:00,50.0,41.0,29.50,NE,45,4.9,6.0,71,0.00,,SCT,0.29,VWS V14.01,2013-01-24 12:15:00,
2013-01-24 13:16:00,50.0,41.0,29.50,NE,45,4.9,4.9,71,0.00,,BKN,0.29,VWS V14.01,2013-01-24 12:16:00,
2013-01-24 13:20:00,50.5,41.5,29.50,NE,45,5.4,6.0,71,0.00,,SCT,0.29,VWS V14.01,2013-01-24 12:20:00,
2013-01-24 13:21:00,50.4,40.6,29.50,North,0,4.9,5.4,69,0.00,,BKN,0.29,VWS V14.01,2013-01-24 12:21:00,
2013-01-24 13:25:00,50.5,40.4,29.50,North,0,4.0,7.6,68,0.00,,SCT,0.29,VWS V14.01,2013-01-24 12:25:00,
2013-01-24 13:26:00,50.7,40.6,29.50,NNW,338,3.4,4.0,68,0.00,,BKN,0.29,VWS V14.01,2013-01-24 12:26:00,
2013-01-24 13:30:00,50.9,41.1,29.50,SSE,158,2.2,4.3,69,0.00,,SCT,0.29,VWS V14.01,2013-01-24 12:30:00,
2013-01-24 13:31:00,51.1,41.3,29.50,North,0,1.6,2.2,69,0.00,,BKN,0.29,VWS V14.01,2013-01-24 12:31:00,
2013-01-24 13:35:00,51.1,41.3,29.50,NNW,338,5.8,5.8,69,0.00,,SCT,0.29,VWS V14.01,2013-01-24 12:35:00,
2013-01-24 13:36:00,51.1,40.9,29.50,WNW,292,2.7,5.8,68,0.00,,BKN,0.29,VWS V14.01,2013-01-24 12:36:00,
2013-01-24 13:40:00,51.3,40.3,29.50,NNW,338,2.7,7.4,66,0.00,,SCT,0.29,VWS V14.01,2013-01-24 12:40:00,
2013-01-24 13:41:00,51.3,40.3,29.50,NNW,338,6.3,6.3,66,0.00,,BKN,0.29,VWS V14.01,2013-01-24 12:41:00,
2013-01-24 13:45:00,51.3,40.3,29.50,NNW,338,3.6,7.4,66,0.00,,SCT,0.29,VWS V14.01,2013-01-24 12:45:00,
2013-01-24 13:46:00,51.3,40.3,29.50,South,180,7.4,7.4,66,0.00,,BKN,0.29,VWS V14.01,2013-01-24 12:46:00,
2013-01-24 13:50:00,51.1,39.3,29.50,WNW,292,8.7,10.1,64,0.00,,SCT,0.29,VWS V14.01,2013-01-24 12:50:00,
2013-01-24 13:51:00,51.1,38.9,29.50,NW,315,7.6,10.3,63,0.00,,BKN,0.29,VWS V14.01,2013-01-24 12:51:00,
2013-01-24 13:55:00,51.3,38.7,29.50,WNW,292,5.4,10.3,62,0.00,,SCT,0.29,VWS V14.01,2013-01-24 12:55:00,
2013-01-24 13:56:00,51.4,38.9,29.50,NNW,338,3.8,5.4,62,0.00,,BKN,0.07,VWS V14.01,2013-01-24 12:56:00,
2013-01-24 14:00:00,51.4,38.5,29.50,NW,315,8.1,10.5,61,0.00,,SCT,0.29,VWS V14.01,2013-01-24 13:00:00,
2013-01-24 14:01:00,51.4,38.5,29.50,NW,315,11.2,11.2,61,0.00,,BKN,0.29,VWS V14.01,2013-01-24 13:01:00,
2013-01-24 14:05:00,51.4,38.9,29.50,NNW,338,4.3,11.2,62,0.00,,SCT,0.29,VWS V14.01,2013-01-24 13:05:00,
2013-01-24 14:06:00,51.4,38.9,29.50,South,180,4.3,5.8,62,0.00,,BKN,0.29,VWS V14.01,2013-01-24 13:06:00,
2013-01-24 14:10:00,51.6,39.5,29.50,NNW,338,6.5,10.1,63,0.00,,SCT,0.29,VWS V14.01,2013-01-24 13:10:00,
2013-01-24 14:11:00,51.8,39.2,29.50,NW,315,7.4,7.4,62,0.00,,BKN,0.29,VWS V14.01,2013-01-24 13:11:00,
2013-01-24 14:15:00,51.6,38.6,29.50,NW,315,8.5,8.5,61,0.00,,SCT,0.29,VWS V14.01,2013-01-24 13:15:00,
2013-01-24 14:16:00,51.8,38.8,29.50,SW,225,4.9,8.5,61,0.00,,SCT,0.29,VWS V14.01,2013-01-24 13:16:00,
2013-01-24 14:20:00,51.8,38.8,29.50,NNW,338,4.9,8.7,61,0.00,,SCT,0.29,VWS V14.01,2013-01-24 13:20:00,
2013-01-24 14:21:00,52.0,39.4,29.50,NW,315,5.6,5.6,62,0.00,,SCT,0.29,VWS V14.01,2013-01-24 13:21:00,
2013-01-24 14:25:00,52.2,39.5,29.50,NNW,338,6.5,6.5,62,0.00,,SCT,0.29,VWS V14.01,2013-01-24 13:25:00,
2013-01-24 14:26:00,52.2,39.5,29.50,NW,315,4.3,6.5,62,0.00,,SCT,0.29,VWS V14.01,2013-01-24 13:26:00,
2013-01-24 14:30:00,52.3,38.9,29.50,NW,315,5.4,7.4,60,0.00,,SCT,0.29,VWS V14.01,2013-01-24 13:30:00,
2013-01-24 14:31:00,52.3,38.9,29.50,NNE,22,4.7,5.4,60,0.00,,SCT,0.29,VWS V14.01,2013-01-24 13:31:00,
2013-01-24 14:35:00,52.3,38.0,29.50,NNW,338,4.3,6.5,58,0.00,,SCT,0.29,VWS V14.01,2013-01-24 13:35:00,
2013-01-24 14:36:00,52.3,37.6,29.50,NNW,338,10.1,10.1,57,0.00,,SCT,0.29,VWS V14.01,2013-01-24 13:36:00,
2013-01-24 14:40:00,52.2,36.5,29.50,NNW,338,7.6,10.1,55,0.00,,SCT,0.29,VWS V14.01,2013-01-24 13:40:00,
2013-01-24 14:41:00,52.0,35.9,29.50,NNW,338,4.0,7.6,54,0.00,,SCT,0.29,VWS V14.01,2013-01-24 13:41:00,
2013-01-24 14:45:00,52.2,36.0,29.50,NW,315,6.5,10.3,54,0.00,,SCT,0.29,VWS V14.01,2013-01-24 13:45:00,
2013-01-24 14:46:00,52.2,36.5,29.50,WNW,292,5.6,6.5,55,0.00,,SCT,0.29,VWS V14.01,2013-01-24 13:46:00,
2013-01-24 14:50:00,52.2,36.5,29.50,NNW,338,3.6,6.5,55,0.00,,SCT,0.29,VWS V14.01,2013-01-24 13:50:00,
2013-01-24 14:51:00,52.2,37.0,29.50,NNW,338,4.3,7.6,56,0.00,,SCT,0.29,VWS V14.01,2013-01-24 13:51:00,
2013-01-24 14:55:00,52.5,37.7,29.50,ESE,112,2.5,7.6,57,0.00,,SCT,0.29,VWS V14.01,2013-01-24 13:55:00,
2013-01-24 14:56:00,52.5,37.7,29.50,NW,315,5.8,5.8,57,0.00,,SCT,0.29,VWS V14.01,2013-01-24 13:56:00,
2013-01-24 15:00:00,52.5,38.2,29.50,NNW,338,2.5,5.8,58,0.00,,SCT,0.29,VWS V14.01,2013-01-24 14:00:00,
2013-01-24 15:01:00,52.5,38.2,29.50,North,0,2.7,2.7,58,0.00,,SCT,0.29,VWS V14.01,2013-01-24 14:01:00,
2013-01-24 15:05:00,52.7,38.3,29.50,NW,315,6.3,6.9,58,0.00,,SCT,0.29,VWS V14.01,2013-01-24 14:05:00,
2013-01-24 15:06:00,52.7,37.9,29.50,ENE,68,1.6,6.3,57,0.00,,SCT,0.29,VWS V14.01,2013-01-24 14:06:00,
2013-01-24 15:10:00,52.9,38.5,29.50,NNE,22,3.1,6.3,58,0.00,,SCT,0.29,VWS V14.01,2013-01-24 14:10:00,
2013-01-24 15:11:00,52.9,38.5,29.50,WSW,248,2.0,3.1,58,0.00,,SCT,0.29,VWS V14.01,2013-01-24 14:11:00,
2013-01-24 15:15:00,52.7,37.9,29.50,NW,315,2.0,6.0,57,0.00,,SCT,0.29,VWS V14.01,2013-01-24 14:15:00,
2013-01-24 15:16:00,52.9,38.5,29.50,NNW,338,2.5,2.5,58,0.00,,SCT,0.29,VWS V14.01,2013-01-24 14:16:00,
2013-01-24 15:20:00,52.9,37.6,29.50,NNW,338,8.1,8.5,56,0.00,,SCT,0.29,VWS V14.01,2013-01-24 14:20:00,
2013-01-24 15:21:00,52.9,38.5,29.50,NW,315,6.9,8.1,58,0.00,,SCT,0.29,VWS V14.01,2013-01-24 14:21:00,
2013-01-24 15:25:00,52.2,38.7,29.50,NE,45,7.8,11.0,60,0.00,,SCT,0.29,VWS V14.01,2013-01-24 14:25:00,
2013-01-24 15:26:00,52.2,38.7,29.50,North,0,7.4,7.8,60,0.00,,SCT,0.29,VWS V14.01,2013-01-24 14:26:00,
2013-01-24 15:30:00,51.6,39.5,29.50,NW,315,4.9,7.8,63,0.00,,SCT,0.29,VWS V14.01,2013-01-24 14:30:00,
2013-01-24 15:31:00,51.6,39.5,29.50,NNE,22,6.3,6.3,63,0.00,,SCT,0.29,VWS V14.01,2013-01-24 14:31:00,
2013-01-24 15:35:00,51.6,39.9,29.50,North,0,4.3,6.3,64,0.00,,SCT,0.29,VWS V14.01,2013-01-24 14:35:00,
2013-01-24 15:36:00,51.4,39.7,29.50,NNW,338,4.3,4.3,64,0.00,,SCT,0.29,VWS V14.01,2013-01-24 14:36:00,
2013-01-24 15:40:00,51.3,39.9,29.50,NNW,338,3.6,6.3,65,0.00,,SCT,0.29,VWS V14.01,2013-01-24 14:40:00,
2013-01-24 15:41:00,51.3,39.9,29.50,NW,315,4.0,4.0,65,0.00,,SCT,0.29,VWS V14.01,2013-01-24 14:41:00,
2013-01-24 15:45:00,51.1,39.3,29.50,NW,315,7.6,7.6,64,0.00,,SCT,0.29,VWS V14.01,2013-01-24 14:45:00,
2013-01-24 15:46:00,50.9,39.6,29.50,NNW,338,5.8,7.6,65,0.00,,SCT,0.29,VWS V14.01,2013-01-24 14:46:00,
2013-01-24 15:50:00,50.9,39.6,29.50,NE,45,4.3,7.6,65,0.00,,SCT,0.29,VWS V14.01,2013-01-24 14:50:00,
2013-01-24 15:51:00,50.9,39.6,29.50,NNE,22,4.3,4.3,65,0.00,,SCT,0.29,VWS V14.01,2013-01-24 14:51:00,
2013-01-24 15:55:00,50.9,39.6,29.50,NW,315,5.6,6.5,65,0.00,,SCT,0.29,VWS V14.01,2013-01-24 14:55:00,
2013-01-24 15:56:00,50.9,39.6,29.50,NNW,338,3.1,5.6,65,0.00,,SCT,0.29,VWS V14.01,2013-01-24 14:56:00,
2013-01-24 16:00:00,50.7,39.8,29.50,NNW,338,3.6,5.6,66,0.00,,SCT,0.29,VWS V14.01,2013-01-24 15:00:00,
2013-01-24 16:01:00,50.7,39.8,29.50,NNW,338,4.3,4.3,66,0.00,,SCT,0.29,VWS V14.01,2013-01-24 15:01:00,
2013-01-24 16:05:00,50.7,39.8,29.50,NNW,338,2.9,5.4,66,0.00,,SCT,0.29,VWS V14.01,2013-01-24 15:05:00,
2013-01-24 16:06:00,50.7,39.4,29.50,NNW,338,5.4,5.4,65,0.00,,SCT,0.29,VWS V14.01,2013-01-24 15:06:00,
2013-01-24 16:10:00,50.7,39.4,29.50,NNW,338,3.1,5.4,65,0.00,,SCT,0.29,VWS V14.01,2013-01-24 15:10:00,
2013-01-24 16:11:00,50.7,39.4,29.50,NNW,338,4.5,5.4,65,0.00,,SCT,0.29,VWS V14.01,2013-01-24 15:11:00,
2013-01-24 16:15:00,50.5,39.2,29.50,North,0,3.4,6.5,65,0.00,,SCT,0.29,VWS V14.01,2013-01-24 15:15:00,
2013-01-24 16:16:00,50.5,39.2,29.50,NNW,338,5.6,5.6,65,0.00,,SCT,0.29,VWS V14.01,2013-01-24 15:16:00,
2013-01-24 16:20:00,50.5,39.2,29.50,North,0,5.4,5.6,65,0.00,,SCT,0.29,VWS V14.01,2013-01-24 15:20:00,
2013-01-24 16:21:00,50.5,39.2,29.50,NNE,22,5.6,5.6,65,0.00,,SCT,0.29,VWS V14.01,2013-01-24 15:21:00,
2013-01-24 16:25:00,50.4,39.0,29.50,WNW,292,6.0,8.5,65,0.00,,SCT,0.29,VWS V14.01,2013-01-24 15:25:00,
2013-01-24 16:26:00,50.4,39.1,29.50,North,0,4.9,6.0,65,0.00,,SCT,0.29,VWS V14.01,2013-01-24 15:26:00,
2013-01-24 16:30:00,50.4,38.7,29.47,NNW,338,6.5,6.5,64,0.00,,SCT,0.29,VWS V14.01,2013-01-24 15:30:00,
2013-01-24 16:31:00,50.4,37.8,29.47,NNW,338,4.0,6.5,62,0.00,,BKN083,0.29,VWS V14.01,2013-01-24 15:31:00,
2013-01-24 16:35:00,50.4,37.8,29.47,WNW,292,4.0,9.6,62,0.00,,SCT,0.29,VWS V14.01,2013-01-24 15:35:00,
2013-01-24 16:36:00,50.4,37.8,29.47,NNW,338,9.0,9.0,62,0.00,,BKN083,0.29,VWS V14.01,2013-01-24 15:36:00,
2013-01-24 16:40:00,50.4,37.4,29.47,North,0,5.8,9.2,61,0.00,,SCT,0.29,VWS V14.01,2013-01-24 15:40:00,
2013-01-24 16:41:00,50.4,37.4,29.47,NNW,338,6.3,6.3,61,0.00,,BKN083,0.29,VWS V14.01,2013-01-24 15:41:00,
2013-01-24 16:45:00,50.2,37.7,29.47,WNW,292,6.3,6.3,62,0.00,,SCT,0.29,VWS V14.01,2013-01-24 15:45:00,
2013-01-24 16:46:00,50.2,37.7,29.47,North,0,5.4,6.3,62,0.00,,BKN083,0.29,VWS V14.01,2013-01-24 15:46:00,
2013-01-24 16:50:00,50.2,37.7,29.47,NW,315,5.4,6.3,62,0.00,,SCT,0.29,VWS V14.01,2013-01-24 15:50:00,
2013-01-24 16:51:00,50.0,37.9,29.47,WNW,292,4.9,5.4,63,0.00,,BKN083,0.29,VWS V14.01,2013-01-24 15:51:00,
2013-01-24 16:55:00,49.8,38.2,29.47,NW,315,4.7,5.4,64,0.00,,SCT,0.29,VWS V14.01,2013-01-24 15:55:00,
2013-01-24 16:56:00,49.8,38.2,29.47,NW,315,3.4,4.9,64,0.00,,BKN083,0.29,VWS V14.01,2013-01-24 15:56:00,
2013-01-24 17:00:00,49.8,38.2,29.47,NNW,338,3.4,7.4,64,0.00,,SCT,0.29,VWS V14.01,2013-01-24 16:00:00,
2013-01-24 17:01:00,49.8,38.2,29.47,NNW,338,3.4,3.4,64,0.00,,BKN083,0.29,VWS V14.01,2013-01-24 16:01:00,
2013-01-24 17:05:00,49.6,38.0,29.47,NNW,338,2.2,5.6,64,0.00,,SCT,0.29,VWS V14.01,2013-01-24 16:05:00,
2013-01-24 17:06:00,49.6,38.0,29.47,NW,315,5.8,6.3,64,0.00,,BKN083,0.29,VWS V14.01,2013-01-24 16:06:00,
2013-01-24 17:10:00,49.6,38.0,29.47,NW,315,4.7,6.3,64,0.00,,SCT,0.29,VWS V14.01,2013-01-24 16:10:00,
2013-01-24 17:11:00,49.6,38.0,29.47,NW,315,6.5,6.5,64,0.00,,BKN083,0.29,VWS V14.01,2013-01-24 16:11:00,
2013-01-24 17:15:00,49.5,37.8,29.47,NW,315,3.8,6.5,64,0.00,,SCT,0.29,VWS V14.01,2013-01-24 16:15:00,
2013-01-24 17:16:00,49.5,37.8,29.47,NW,315,5.6,5.6,64,0.00,,SCT,0.29,VWS V14.01,2013-01-24 16:16:00,
2013-01-24 17:20:00,49.5,37.8,29.47,NNW,338,4.0,5.6,64,0.00,,SCT,0.29,VWS V14.01,2013-01-24 16:20:00,
2013-01-24 17:21:00,49.5,37.8,29.47,NNW,338,5.4,5.4,64,0.00,,SCT,0.29,VWS V14.01,2013-01-24 16:21:00,
2013-01-24 17:25:00,49.3,37.6,29.47,NW,315,3.1,5.4,64,0.00,,SCT,0.29,VWS V14.01,2013-01-24 16:25:00,
2013-01-24 17:26:00,49.3,37.6,29.47,NNW,338,2.7,3.1,64,0.00,,SCT,0.29,VWS V14.01,2013-01-24 16:26:00,
2013-01-24 17:30:00,49.1,37.9,29.50,West,270,0.0,3.1,65,0.00,,SCT,0.29,VWS V14.01,2013-01-24 16:30:00,
2013-01-24 17:31:00,49.1,37.9,29.50,North,0,0.0,0.0,65,0.00,,SCT,0.29,VWS V14.01,2013-01-24 16:31:00,
2013-01-24 17:35:00,48.9,37.7,29.50,South,180,1.1,2.2,65,0.00,,SCT,0.29,VWS V14.01,2013-01-24 16:35:00,
2013-01-24 17:36:00,48.7,37.5,29.50,North,0,0.0,1.1,65,0.00,,SCT,0.29,VWS V14.01,2013-01-24 16:36:00,
2013-01-24 17:40:00,48.7,37.5,29.50,West,270,0.0,1.1,65,0.00,,SCT,0.29,VWS V14.01,2013-01-24 16:40:00,
2013-01-24 17:41:00,48.7,37.5,29.50,North,0,1.6,1.6,65,0.00,,SCT,0.29,VWS V14.01,2013-01-24 16:41:00,
2013-01-24 17:45:00,48.6,37.7,29.50,SE,135,0.0,1.6,66,0.00,,SCT,0.29,VWS V14.01,2013-01-24 16:45:00,
2013-01-24 17:46:00,48.6,37.7,29.50,SE,135,0.0,0.0,66,0.00,,SCT,0.29,VWS V14.01,2013-01-24 16:46:00,
2013-01-24 17:50:00,48.2,37.4,29.50,SE,135,2.2,2.2,66,0.00,,SCT,0.29,VWS V14.01,2013-01-24 16:50:00,
2013-01-24 17:51:00,48.2,37.8,29.50,WSW,248,1.6,2.2,67,0.00,,SCT,0.29,VWS V14.01,2013-01-24 16:51:00,
2013-01-24 17:55:00,48.0,37.6,29.50,NNW,338,0.0,2.5,67,0.00,,SCT,0.29,VWS V14.01,2013-01-24 16:55:00,
2013-01-24 17:56:00,48.0,37.6,29.50,NE,45,1.6,1.6,67,0.00,,SCT,0.29,VWS V14.01,2013-01-24 16:56:00,
2013-01-24 18:00:00,48.0,37.6,29.53,SSE,158,1.1,1.6,67,0.00,,SCT,0.29,VWS V14.01,2013-01-24 17:00:00,
2013-01-24 18:01:00,48.0,37.6,29.53,ESE,112,0.0,1.1,67,0.00,,SCT,0.29,VWS V14.01,2013-01-24 17:01:00,
2013-01-24 18:05:00,47.8,37.4,29.53,East,90,2.5,2.5,67,0.00,,SCT,0.29,VWS V14.01,2013-01-24 17:05:00,
2013-01-24 18:09:00,47.7,37.3,29.53,East,90,0.0,0.0,67,0.00,,SCT,0.08,VWS V14.01,2013-01-24 17:09:00,
2013-01-24 18:10:00,47.7,37.3,29.53,NNE,22,1.6,1.6,67,0.00,,SCT,0.29,VWS V14.01,2013-01-24 17:10:00,
2013-01-24 18:14:00,47.8,37.8,29.53,SSW,202,1.6,2.5,68,0.00,,SCT,0.29,VWS V14.01,2013-01-24 17:14:00,
2013-01-24 18:15:00,47.8,37.8,29.53,NE,45,2.0,2.5,68,0.00,,SCT,0.29,VWS V14.01,2013-01-24 17:15:00,
2013-01-24 18:19:00,47.8,38.2,29.53,NNW,338,1.3,2.0,69,0.00,,SCT,0.29,VWS V14.01,2013-01-24 17:19:00,
2013-01-24 18:20:00,47.8,38.2,29.53,NNE,22,2.5,2.5,69,0.00,,SCT,0.29,VWS V14.01,2013-01-24 17:20:00,
2013-01-24 18:24:00,47.8,38.2,29.53,North,0,0.9,2.7,69,0.00,,SCT,0.29,VWS V14.01,2013-01-24 17:24:00,
2013-01-24 18:25:00,47.8,38.2,29.53,NE,45,1.6,2.7,69,0.00,,SCT,0.29,VWS V14.01,2013-01-24 17:25:00,
2013-01-24 18:29:00,47.8,38.2,29.53,ESE,112,1.6,2.7,69,0.00,,SCT,0.29,VWS V14.01,2013-01-24 17:29:00,
2013-01-24 18:30:00,47.8,38.2,29.53,ESE,112,1.6,2.7,69,0.00,,SCT,0.29,VWS V14.01,2013-01-24 17:30:00,
2013-01-24 18:34:00,47.8,38.2,29.53,WNW,292,1.6,2.0,69,0.00,,SCT,0.29,VWS V14.01,2013-01-24 17:34:00,
2013-01-24 18:35:00,47.8,38.2,29.53,WSW,248,2.7,2.7,69,0.00,,SCT,0.29,VWS V14.01,2013-01-24 17:35:00,
2013-01-24 18:40:00,47.8,38.5,29.53,North,0,2.2,3.4,70,0.00,,SCT,0.29,VWS V14.01,2013-01-24 17:40:00,
2013-01-24 18:41:00,47.8,38.5,29.53,NE,45,2.9,2.9,70,0.00,,SCT,0.29,VWS V14.01,2013-01-24 17:41:00,
2013-01-24 18:45:00,47.8,38.5,29.53,SW,225,1.6,2.9,70,0.00,,SCT,0.29,VWS V14.01,2013-01-24 17:45:00,
2013-01-24 18:46:00,47.8,38.2,29.53,NW,315,1.6,1.6,69,0.00,,SCT,0.29,VWS V14.01,2013-01-24 17:46:00,
2013-01-24 18:50:00,47.8,38.2,29.53,North,0,1.6,1.6,69,0.00,,SCT,0.29,VWS V14.01,2013-01-24 17:50:00,
2013-01-24 18:51:00,47.7,38.0,29.53,NNW,338,1.3,1.6,69,0.00,,SCT,0.29,VWS V14.01,2013-01-24 17:51:00,
2013-01-24 18:56:00,47.7,38.0,29.53,North,0,3.6,3.6,69,0.00,,SCT,0.29,VWS V14.01,2013-01-24 17:56:00,
2013-01-24 19:00:00,47.7,38.0,29.53,NNW,338,6.0,6.0,69,0.00,,SCT,0.29,VWS V14.01,2013-01-24 18:00:00,
2013-01-24 19:01:00,47.7,38.0,29.53,NW,315,4.3,6.3,69,0.00,,SCT,0.29,VWS V14.01,2013-01-24 18:01:00,
2013-01-24 19:05:00,47.5,37.8,29.53,NW,315,7.8,7.8,69,0.00,,SCT,0.29,VWS V14.01,2013-01-24 18:05:00,
2013-01-24 19:06:00,47.5,37.8,29.53,NNW,338,5.4,7.8,69,0.00,,SCT,0.29,VWS V14.01,2013-01-24 18:06:00,
2013-01-24 19:10:00,47.5,37.5,29.53,NNW,338,6.5,7.8,68,0.00,,SCT,0.29,VWS V14.01,2013-01-24 18:10:00,
2013-01-24 19:14:00,47.7,37.3,29.53,North,0,5.6,5.6,67,0.00,,SCT,0.08,VWS V14.01,2013-01-24 18:14:00,
2013-01-24 19:15:00,47.7,37.3,29.53,NNW,338,8.7,8.7,67,0.00,,SCT,0.29,VWS V14.01,2013-01-24 18:15:00,
2013-01-24 19:19:00,47.8,37.0,29.53,NW,315,9.4,9.4,66,0.00,,SCT,0.29,VWS V14.01,2013-01-24 18:19:00,
2013-01-24 19:20:00,47.8,36.7,29.53,NNW,338,6.5,9.4,65,0.00,,SCT,0.29,VWS V14.01,2013-01-24 18:20:00,
2013-01-24 19:24:00,47.7,36.5,29.53,NNW,338,4.7,6.5,65,0.00,,SCT,0.29,VWS V14.01,2013-01-24 18:24:00,
2013-01-24 19:25:00,47.7,36.5,29.53,NW,315,4.0,6.5,65,0.00,,SCT,0.29,VWS V14.01,2013-01-24 18:25:00,
2013-01-24 19:29:00,47.5,36.7,29.53,NNW,338,6.5,6.5,66,0.00,,SCT,0.29,VWS V14.01,2013-01-24 18:29:00,
2013-01-24 19:30:00,47.5,36.7,29.53,NNW,338,6.5,6.5,66,0.00,,SCT,0.29,VWS V14.01,2013-01-24 18:30:00,
2013-01-24 19:34:00,47.3,36.5,29.53,NW,315,4.0,7.6,66,0.00,,SCT,0.29,VWS V14.01,2013-01-24 18:34:00,
2013-01-24 19:39:00,46.9,36.6,29.53,NNW,338,5.4,7.6,67,0.00,,SCT,0.29,VWS V14.01,2013-01-24 18:39:00,
2013-01-24 19:40:00,46.9,36.6,29.53,NNW,338,4.0,7.6,67,0.00,,SCT,0.29,VWS V14.01,2013-01-24 18:40:00,
2013-01-24 19:44:00,46.9,36.6,29.50,NW,315,5.8,5.8,67,0.00,,SCT,0.29,VWS V14.01,2013-01-24 18:44:00,
2013-01-24 19:45:00,46.8,36.4,29.50,WNW,292,6.0,6.0,67,0.00,,SCT,0.29,VWS V14.01,2013-01-24 18:45:00,
2013-01-24 19:51:00,46.6,36.6,29.50,West,270,4.0,4.0,68,0.00,,SCT,0.08,VWS V14.01,2013-01-24 18:51:00,
2013-01-24 19:55:00,46.6,36.6,29.50,NNW,338,6.7,7.2,68,0.00,,SCT,0.29,VWS V14.01,2013-01-24 18:55:00,
2013-01-24 19:58:00,46.4,36.4,29.53,NW,315,4.7,6.7,68,0.00,,SCT,0.29,VWS V14.01,2013-01-24 18:58:00,
2013-01-24 20:00:00,46.4,36.4,29.53,NE,45,8.1,8.1,68,0.00,,SCT,0.29,VWS V14.01,2013-01-24 19:00:00,
2013-01-24 20:03:00,46.2,36.3,29.53,NW,315,5.6,8.1,68,0.00,,SCT,0.29,VWS V14.01,2013-01-24 19:03:00,
2013-01-24 20:05:00,46.0,36.1,29.53,NNW,338,4.3,8.1,68,0.00,,SCT,0.29,VWS V14.01,2013-01-24 19:05:00,
2013-01-24 20:08:00,45.9,36.3,29.53,NNE,22,4.9,4.9,69,0.00,,SCT,0.29,VWS V14.01,2013-01-24 19:08:00,
2013-01-24 20:10:00,45.7,36.1,29.53,North,0,6.0,7.8,69,0.00,,SCT,0.29,VWS V14.01,2013-01-24 19:10:00,
2013-01-24 20:16:00,45.3,36.1,29.53,North,0,3.8,3.8,70,0.00,,SCT,0.08,VWS V14.01,2013-01-24 19:16:00,
2013-01-24 20:21:00,45.0,35.8,29.53,North,0,9.8,9.8,70,0.00,,SCT,0.29,VWS V14.01,2013-01-24 19:21:00,
2013-01-24 20:26:00,45.0,36.1,29.53,NNW,338,8.7,8.7,71,0.00,,SCT,0.29,VWS V14.01,2013-01-24 19:26:00,
2013-01-24 20:31:00,45.0,36.5,29.53,North,0,6.7,6.7,72,0.00,,SCT,0.29,VWS V14.01,2013-01-24 19:31:00,
2013-01-24 20:36:00,45.0,36.5,29.53,WNW,292,4.7,4.7,72,0.00,,SCT,0.29,VWS V14.01,2013-01-24 19:36:00,
2013-01-24 20:41:00,45.0,36.5,29.53,NNW,338,6.3,6.3,72,0.00,,SCT,0.29,VWS V14.01,2013-01-24 19:41:00,
2013-01-24 20:46:00,45.0,36.5,29.53,NNW,338,8.7,8.7,72,0.00,,SCT,0.29,VWS V14.01,2013-01-24 19:46:00,
2013-01-24 20:51:00,45.0,36.5,29.53,NW,315,8.1,8.1,72,0.00,,SCT,0.29,VWS V14.01,2013-01-24 19:51:00,
2013-01-24 20:56:00,44.8,36.3,29.53,NNW,338,8.1,8.1,72,0.00,,SCT,0.29,VWS V14.01,2013-01-24 19:56:00,
2013-01-24 21:01:00,44.6,36.2,29.53,NW,315,6.5,6.5,72,0.00,,SCT,0.29,VWS V14.01,2013-01-24 20:01:00,
2013-01-24 21:06:00,44.4,36.3,29.53,NNW,338,6.7,6.7,73,0.00,,SCT,0.29,VWS V14.01,2013-01-24 20:06:00,
2013-01-24 21:11:00,44.2,36.5,29.53,NNW,338,6.0,6.0,74,0.00,,SCT,0.29,VWS V14.01,2013-01-24 20:11:00,
2013-01-24 21:16:00,44.2,36.5,29.53,North,0,8.1,8.1,74,0.00,,SCT,0.29,VWS V14.01,2013-01-24 20:16:00,
2013-01-24 21:21:00,44.1,36.3,29.53,NNW,338,7.4,7.4,74,0.00,,SCT,0.29,VWS V14.01,2013-01-24 20:21:00,
2013-01-24 21:26:00,44.1,36.3,29.53,NNW,338,7.4,7.6,74,0.00,,SCT,0.29,VWS V14.01,2013-01-24 20:26:00,
2013-01-24 21:31:00,44.1,36.3,29.53,NW,315,4.3,7.8,74,0.00,,SCT,0.29,VWS V14.01,2013-01-24 20:31:00,
2013-01-24 21:36:00,44.1,36.7,29.53,NNW,338,6.3,6.3,75,0.00,,SCT,0.29,VWS V14.01,2013-01-24 20:36:00,
2013-01-24 21:41:00,43.9,36.5,29.53,North,0,4.0,4.0,75,0.00,,SCT,0.29,VWS V14.01,2013-01-24 20:41:00,
2013-01-24 21:46:00,43.7,36.3,29.53,NNW,338,3.6,6.7,75,0.00,,SCT,0.29,VWS V14.01,2013-01-24 20:46:00,
2013-01-24 21:51:00,43.7,36.3,29.53,WNW,292,6.0,6.0,75,0.00,,SCT,0.29,VWS V14.01,2013-01-24 20:51:00,
2013-01-24 21:56:00,43.5,36.1,29.53,NNW,338,4.0,4.0,75,0.00,,SCT,0.29,VWS V14.01,2013-01-24 20:56:00,
2013-01-24 22:01:00,43.3,36.3,29.53,North,0,6.5,6.5,76,0.00,,SCT,0.08,VWS V14.01,2013-01-24 21:01:00,
2013-01-24 22:06:00,43.3,36.3,29.53,North,0,5.8,6.0,76,0.00,,SCT,0.29,VWS V14.01,2013-01-24 21:06:00,
2013-01-24 22:11:00,43.2,36.1,29.53,NW,315,7.4,7.4,76,0.00,,SCT,0.29,VWS V14.01,2013-01-24 21:11:00,
2013-01-24 22:16:00,43.3,36.3,29.53,NNW,338,8.7,8.7,76,0.00,,SCT,0.29,VWS V14.01,2013-01-24 21:16:00,
2013-01-24 22:21:00,43.5,36.5,29.53,NW,315,8.5,11.0,76,0.00,,SCT,0.29,VWS V14.01,2013-01-24 21:21:00,
2013-01-24 22:26:00,43.5,36.1,29.53,NNE,22,6.3,6.3,75,0.00,,SCT,0.29,VWS V14.01,2013-01-24 21:26:00,
2013-01-24 22:31:00,43.5,36.1,29.53,NNE,22,6.5,6.5,75,0.00,,SCT,0.29,VWS V14.01,2013-01-24 21:31:00,
2013-01-24 22:36:00,43.3,36.3,29.53,NW,315,4.0,4.0,76,0.00,,SCT,0.29,VWS V14.01,2013-01-24 21:36:00,
2013-01-24 22:41:00,43.0,36.0,29.53,North,0,6.0,6.0,76,0.00,,SCT,0.29,VWS V14.01,2013-01-24 21:41:00,
2013-01-24 22:46:00,43.0,36.0,29.53,NNW,338,6.5,6.5,76,0.00,,SCT,0.29,VWS V14.01,2013-01-24 21:46:00,
2013-01-24 22:51:00,43.0,36.3,29.53,NNW,338,4.0,6.3,77,0.00,,SCT,0.29,VWS V14.01,2013-01-24 21:51:00,
2013-01-24 22:56:00,43.2,36.1,29.53,NNW,338,6.7,7.4,76,0.00,,SCT,0.29,VWS V14.01,2013-01-24 21:56:00,
2013-01-24 23:01:00,43.2,36.1,29.53,WNW,292,5.6,7.6,76,0.00,,SCT,0.29,VWS V14.01,2013-01-24 22:01:00,
2013-01-24 23:06:00,43.2,36.1,29.53,NE,45,9.0,9.0,76,0.00,,SCT,0.29,VWS V14.01,2013-01-24 22:06:00,
2013-01-24 23:11:00,43.2,36.1,29.53,North,0,9.2,9.2,76,0.00,,SCT,0.29,VWS V14.01,2013-01-24 22:11:00,
2013-01-24 23:16:00,43.2,35.8,29.53,NW,315,6.0,8.1,75,0.00,,SCT,0.29,VWS V14.01,2013-01-24 22:16:00,
2013-01-24 23:21:00,43.0,35.6,29.53,North,0,5.6,7.4,75,0.00,,SCT,0.29,VWS V14.01,2013-01-24 22:21:00,
2013-01-24 23:26:00,43.0,35.6,29.53,North,0,5.6,6.3,75,0.00,,SCT,0.29,VWS V14.01,2013-01-24 22:26:00,
2013-01-24 23:31:00,42.8,35.4,29.53,North,0,6.7,6.7,75,0.00,,SCT,0.29,VWS V14.01,2013-01-24 22:31:00,
2013-01-24 23:36:00,42.8,35.4,29.53,NNE,22,6.3,6.3,75,0.00,,SCT,0.29,VWS V14.01,2013-01-24 22:36:00,
2013-01-24 23:41:00,42.8,35.4,29.53,NNW,338,9.8,9.8,75,0.00,,SCT,0.29,VWS V14.01,2013-01-24 22:41:00,
2013-01-24 23:46:00,42.8,35.4,29.53,NNW,338,6.5,7.8,75,0.00,,SCT,0.29,VWS V14.01,2013-01-24 22:46:00,
2013-01-24 23:51:00,42.8,35.4,29.53,North,0,5.8,6.5,75,0.00,,SCT,0.29,VWS V14.01,2013-01-24 22:51:00,
2013-01-24 23:56:00,42.6,35.3,29.53,NNW,338,6.3,9.6,75,0.00,,SCT,0.29,VWS V14.01,2013-01-24 22:56:00,